Time;durP1;ratioP1;P1;durP2;ratioP2;P2;SDS_P1;SDS_P2;PMS_P1;PMS_P2;Temp;Humidity;BMP_temperature;BMP_pressure;BME280_temperature;BME280_humidity;BME280_pressure;Samples;Min_cycle;Max_cycle;Signal;HPM_P1;HPM_P2
2022/09/04 00:00:02;;;;;;;5.27;4.87;;;;;;;;;;5054076;28;20534;-76
2022/09/04 00:02:48;;;;;;;5.53;5.07;;;;;;;;;;5071884;28;20437;-76
2022/09/04 00:05:18;;;;;;;6.77;6.10;;;;;;;;;;5053952;28;20494;-76
2022/09/04 00:07:55;;;;;;;12.93;6.50;;;;;;;;;;5053975;28;20456;-76
2022/09/04 00:10:29;;;;;;;7.10;6.23;;;;;;;;;;5071948;28;20471;-76
2022/09/04 00:13:03;;;;;;;6.87;5.93;;;;;;;;;;5054147;28;20528;-74
2022/09/04 00:15:33;;;;;;;7.03;6.33;;;;;;;;;;5071759;28;20421;-74
2022/09/04 00:18:16;;;;;;;6.50;5.90;;;;;;;;;;5053703;28;20464;-75
2022/09/04 00:20:56;;;;;;;6.53;5.67;;;;;;;;;;5053821;28;20448;-76
2022/09/04 00:23:25;;;;;;;19.07;6.43;;;;;;;;;;5071820;28;20447;-76
2022/09/04 00:25:56;;;;;;;16.47;7.70;;;;;;;;;;5053612;28;20429;-76
2022/09/04 00:28:33;;;;;;;7.37;5.90;;;;;;;;;;5053759;28;20999;-76
2022/09/04 00:31:06;;;;;;;12.30;7.77;;;;;;;;;;5041601;28;20441;-76
2022/09/04 00:34:08;;;;;;;14.30;9.03;;;;;;;;;;5053617;28;20467;-75
2022/09/04 00:36:36;;;;;;;19.17;9.73;;;;;;;;;;4993072;28;20435;-76
2022/09/04 00:39:15;;;;;;;18.83;9.90;;;;;;;;;;5046742;28;20464;-75
2022/09/04 00:42:01;;;;;;;50.20;10.87;;;;;;;;;;5036915;28;20534;-76
2022/09/04 00:44:31;;;;;;;25.00;9.50;;;;;;;;;;5071427;28;20420;-74
2022/09/04 00:47:13;;;;;;;36.03;10.10;;;;;;;;;;5053179;28;20963;-74
2022/09/04 00:49:56;;;;;;;26.30;9.30;;;;;;;;;;5036590;28;20534;-76
2022/09/04 00:52:29;;;;;;;40.67;10.40;;;;;;;;;;5071315;28;20419;-76
2022/09/04 00:55:20;;;;;;;27.13;9.20;;;;;;;;;;5053980;28;20420;-75
2022/09/04 00:58:02;;;;;;;20.37;8.40;;;;;;;;;;5036689;28;20454;-76
2022/09/04 01:00:30;;;;;;;14.50;8.07;;;;;;;;;;5053394;28;21025;-76
2022/09/04 01:03:00;;;;;;;14.13;8.17;;;;;;;;;;5036603;28;20886;-74
2022/09/04 01:05:30;;;;;;;14.10;9.33;;;;;;;;;;5053071;28;20485;-76
2022/09/04 01:08:16;;;;;;;20.63;9.47;;;;;;;;;;5053254;28;20413;-76
2022/09/04 01:10:42;;;;;;;10.97;7.83;;;;;;;;;;5053113;28;20445;-76
2022/09/04 01:13:32;;;;;;;18.03;8.23;;;;;;;;;;5052972;28;20442;-76
2022/09/04 01:16:04;;;;;;;31.73;8.70;;;;;;;;;;5052920;28;20485;-76
2022/09/04 01:18:47;;;;;;;26.43;8.33;;;;;;;;;;5053138;28;20487;-76
2022/09/04 01:21:13;;;;;;;12.73;8.80;;;;;;;;;;5037905;28;20488;-75
2022/09/04 01:23:55;;;;;;;13.17;7.77;;;;;;;;;;5047919;28;20443;-75
2022/09/04 01:26:26;;;;;;;8.93;8.10;;;;;;;;;;5052930;28;20635;-76
2022/09/04 01:29:09;;;;;;;12.90;8.10;;;;;;;;;;5053029;28;20915;-76
2022/09/04 01:31:38;;;;;;;17.60;8.63;;;;;;;;;;5052702;28;20872;-75
2022/09/04 01:34:24;;;;;;;12.77;10.00;;;;;;;;;;5052862;28;20471;-74
2022/09/04 01:36:53;;;;;;;17.77;10.03;;;;;;;;;;5071069;28;20482;-74
2022/09/04 01:39:22;;;;;;;24.40;8.00;;;;;;;;;;5036085;28;21007;-76
2022/09/04 01:41:48;;;;;;;41.13;10.20;;;;;;;;;;5070706;28;20425;-75
2022/09/04 01:44:15;;;;;;;16.77;7.87;;;;;;;;;;5053272;28;20516;-76
2022/09/04 01:46:53;;;;;;;12.33;9.00;;;;;;;;;;5070627;28;20497;-74
2022/09/04 01:49:23;;;;;;;23.07;7.93;;;;;;;;;;5070541;28;20447;-75
2022/09/04 01:51:56;;;;;;;23.57;7.40;;;;;;;;;;5052772;28;20486;-75
2022/09/04 01:54:41;;;;;;;26.07;9.20;;;;;;;;;;5035997;28;20445;-75
2022/09/04 01:57:16;;;;;;;16.00;7.80;;;;;;;;;;5052558;28;20932;-74
2022/09/04 01:59:43;;;;;;;19.20;7.83;;;;;;;;;;5052459;28;20857;-75
2022/09/04 02:02:09;;;;;;;12.13;6.60;;;;;;;;;;5036042;28;20444;-75
2022/09/04 02:04:41;;;;;;;9.43;7.00;;;;;;;;;;5070805;28;20432;-75
2022/09/04 02:07:30;;;;;;;11.63;7.60;;;;;;;;;;5052513;28;20432;-74
2022/09/04 02:10:00;;;;;;;14.07;7.43;;;;;;;;;;5052740;28;20483;-76
2022/09/04 02:12:49;;;;;;;14.90;8.37;;;;;;;;;;5070594;28;20456;-76
2022/09/04 02:15:35;;;;;;;23.73;7.87;;;;;;;;;;5070447;28;20727;-76
2022/09/04 02:18:20;;;;;;;23.53;7.90;;;;;;;;;;5041129;28;20970;-74
2022/09/04 02:20:55;;;;;;;14.73;7.10;;;;;;;;;;5070341;28;20794;-76
2022/09/04 02:23:42;;;;;;;26.37;7.90;;;;;;;;;;5052328;28;20424;-76
2022/09/04 02:26:13;;;;;;;13.60;6.83;;;;;;;;;;5041230;28;20542;-75
2022/09/04 02:29:15;;;;;;;16.43;8.37;;;;;;;;;;5039427;28;20471;-75
2022/09/04 02:32:00;;;;;;;9.77;7.33;;;;;;;;;;4969317;28;20462;-75
2022/09/04 02:34:33;;;;;;;21.90;6.83;;;;;;;;;;5024377;28;20468;-74
2022/09/04 02:37:02;;;;;;;19.73;6.87;;;;;;;;;;5055645;28;20433;-74
2022/09/04 02:39:44;;;;;;;13.20;7.93;;;;;;;;;;5055782;28;20468;-75
2022/09/04 02:42:18;;;;;;;17.07;7.03;;;;;;;;;;5061425;28;20420;-76
2022/09/04 02:44:59;;;;;;;14.63;7.27;;;;;;;;;;5073547;28;20413;-74
2022/09/04 02:47:32;;;;;;;13.20;6.83;;;;;;;;;;5055584;28;20520;-76
2022/09/04 02:50:17;;;;;;;23.83;7.00;;;;;;;;;;5055338;28;20464;-76
2022/09/04 02:52:50;;;;;;;16.20;6.90;;;;;;;;;;5072777;28;20477;-74
2022/09/04 02:55:35;;;;;;;11.03;7.73;;;;;;;;;;5055460;28;20432;-75
2022/09/04 02:58:21;;;;;;;14.30;7.43;;;;;;;;;;5041773;28;20432;-75
2022/09/04 03:00:47;;;;;;;18.27;7.30;;;;;;;;;;5041813;28;20474;-76
2022/09/04 03:03:18;;;;;;;19.33;7.63;;;;;;;;;;5041987;28;20428;-76
2022/09/04 03:06:00;;;;;;;15.97;7.63;;;;;;;;;;5038684;28;20463;-74
2022/09/04 03:08:35;;;;;;;9.57;7.20;;;;;;;;;;5073186;28;20416;-76
2022/09/04 03:11:05;;;;;;;11.83;7.87;;;;;;;;;;5073101;28;20444;-76
2022/09/04 03:13:41;;;;;;;23.63;8.50;;;;;;;;;;5055049;28;20428;-76
2022/09/04 03:16:17;;;;;;;11.17;6.87;;;;;;;;;;5054972;28;20454;-76
2022/09/04 03:18:57;;;;;;;18.50;8.27;;;;;;;;;;5072903;28;20443;-76
2022/09/04 03:21:38;;;;;;;12.80;7.83;;;;;;;;;;5055159;28;21013;-75
2022/09/04 03:24:16;;;;;;;20.53;7.70;;;;;;;;;;5038397;28;20439;-75
2022/09/04 03:26:45;;;;;;;32.03;8.37;;;;;;;;;;5038434;28;20468;-74
2022/09/04 03:29:31;;;;;;;9.77;8.17;;;;;;;;;;5054899;28;20479;-74
2022/09/04 03:32:16;;;;;;;31.27;8.80;;;;;;;;;;5054779;28;20439;-75
2022/09/04 03:34:48;;;;;;;16.00;8.17;;;;;;;;;;5072809;28;20424;-75
2022/09/04 03:37:19;;;;;;;8.97;6.93;;;;;;;;;;5072311;28;20456;-74
2022/09/04 03:39:51;;;;;;;11.17;8.50;;;;;;;;;;5053789;28;21376;-76
2022/09/04 03:42:36;;;;;;;10.70;8.60;;;;;;;;;;5060162;28;20414;-76
2022/09/04 03:45:18;;;;;;;10.23;8.63;;;;;;;;;;5072376;28;20424;-75
2022/09/04 03:47:47;;;;;;;13.33;10.20;;;;;;;;;;5072965;28;20420;-75
2022/09/04 03:50:29;;;;;;;11.37;8.93;;;;;;;;;;5054883;28;20468;-76
2022/09/04 03:52:59;;;;;;;12.63;8.50;;;;;;;;;;5054618;28;20444;-74
2022/09/04 03:55:44;;;;;;;8.97;7.73;;;;;;;;;;5073364;28;20430;-76
2022/09/04 03:58:36;;;;;;;13.80;8.30;;;;;;;;;;5054964;28;20420;-75
2022/09/04 04:01:12;;;;;;;10.70;7.83;;;;;;;;;;5029253;28;20473;-74
2022/09/04 04:03:48;;;;;;;10.00;8.37;;;;;;;;;;5037947;28;20436;-74
2022/09/04 04:06:22;;;;;;;13.07;11.40;;;;;;;;;;5054274;28;20436;-76
2022/09/04 04:09:10;;;;;;;11.00;9.90;;;;;;;;;;5054451;28;20940;-75
2022/09/04 04:11:41;;;;;;;13.33;10.10;;;;;;;;;;5026670;28;20955;-75
2022/09/04 04:14:09;;;;;;;12.80;10.90;;;;;;;;;;5072313;28;20416;-76
2022/09/04 04:16:39;;;;;;;10.50;9.43;;;;;;;;;;5054246;28;20428;-74
2022/09/04 04:19:25;;;;;;;11.30;10.10;;;;;;;;;;5072041;28;20452;-76
2022/09/04 04:21:54;;;;;;;12.10;9.97;;;;;;;;;;5072177;28;20413;-75
2022/09/04 04:24:21;;;;;;;16.00;10.97;;;;;;;;;;5054018;28;20528;-76
2022/09/04 04:27:06;;;;;;;13.00;11.07;;;;;;;;;;5037457;28;20427;-76
2022/09/04 04:29:38;;;;;;;13.73;10.97;;;;;;;;;;5043454;28;20869;-76
2022/09/04 04:32:12;;;;;;;13.53;11.30;;;;;;;;;;5071897;28;20985;-75
2022/09/04 04:34:57;;;;;;;16.13;10.10;;;;;;;;;;5053909;28;20507;-76
2022/09/04 04:37:50;;;;;;;11.73;10.53;;;;;;;;;;5040751;28;20487;-76
2022/09/04 04:40:35;;;;;;;11.50;10.30;;;;;;;;;;5025565;28;20506;-76
2022/09/04 04:43:08;;;;;;;11.90;10.70;;;;;;;;;;5053885;28;20471;-75
2022/09/04 04:45:51;;;;;;;13.43;10.97;;;;;;;;;;5060388;28;20486;-74
2022/09/04 04:48:28;;;;;;;15.20;11.10;;;;;;;;;;5053999;28;20417;-75
2022/09/04 04:51:13;;;;;;;14.80;11.07;;;;;;;;;;5053867;28;20472;-76
2022/09/04 04:53:56;;;;;;;12.87;11.57;;;;;;;;;;5042473;28;20436;-75
2022/09/04 04:56:28;;;;;;;10.70;9.60;;;;;;;;;;5071496;28;20431;-76
2022/09/04 04:59:06;;;;;;;14.10;11.93;;;;;;;;;;5037022;28;20435;-76
2022/09/04 05:01:51;;;;;;;17.63;11.90;;;;;;;;;;5054031;28;20455;-76
2022/09/04 05:04:34;;;;;;;12.70;11.40;;;;;;;;;;5054229;28;20417;-75
2022/09/04 05:07:05;;;;;;;16.90;12.23;;;;;;;;;;5054657;28;20535;-76
2022/09/04 05:09:46;;;;;;;16.30;11.90;;;;;;;;;;5034502;28;20878;-75
2022/09/04 05:12:19;;;;;;;22.37;12.50;;;;;;;;;;5053424;28;20486;-74
2022/09/04 05:15:04;;;;;;;21.07;12.10;;;;;;;;;;5053454;28;20451;-74
2022/09/04 05:17:39;;;;;;;17.93;11.30;;;;;;;;;;5053286;28;20437;-74
2022/09/04 05:20:25;;;;;;;24.17;12.97;;;;;;;;;;5071282;28;20470;-76
2022/09/04 05:22:51;;;;;;;17.27;10.87;;;;;;;;;;5041037;28;20444;-74
2022/09/04 05:25:39;;;;;;;19.30;13.20;;;;;;;;;;5071304;28;20529;-74
2022/09/04 05:28:22;;;;;;;21.40;11.23;;;;;;;;;;5071393;28;20815;-74
2022/09/04 05:30:58;;;;;;;21.27;11.17;;;;;;;;;;5071113;28;20824;-75
2022/09/04 05:33:43;;;;;;;23.43;11.30;;;;;;;;;;5053134;28;20479;-76
2022/09/04 05:36:36;;;;;;;14.33;11.23;;;;;;;;;;5053433;28;20421;-75
2022/09/04 05:39:26;;;;;;;16.23;10.83;;;;;;;;;;5045707;28;20445;-76
2022/09/04 05:42:05;;;;;;;14.57;10.53;;;;;;;;;;5050847;28;20436;-76
2022/09/04 05:44:51;;;;;;;14.87;12.17;;;;;;;;;;5053427;28;20523;-75
2022/09/04 05:47:34;;;;;;;14.47;10.37;;;;;;;;;;5042805;28;20420;-75
2022/09/04 05:50:20;;;;;;;14.70;11.27;;;;;;;;;;5036515;28;20507;-75
2022/09/04 05:52:56;;;;;;;22.50;11.43;;;;;;;;;;5071120;28;20428;-75
2022/09/04 05:55:30;;;;;;;22.43;11.20;;;;;;;;;;5053242;28;20427;-75
2022/09/04 05:58:06;;;;;;;16.73;11.63;;;;;;;;;;5053180;28;20838;-75
2022/09/04 06:00:46;;;;;;;13.83;10.83;;;;;;;;;;5052942;28;20474;-76
2022/09/04 06:03:12;;;;;;;15.90;11.90;;;;;;;;;;5056739;28;20501;-75
2022/09/04 06:05:39;;;;;;;18.10;12.00;;;;;;;;;;5074821;28;20416;-74
2022/09/04 06:08:11;;;;;;;13.57;10.33;;;;;;;;;;5056792;28;20440;-74
2022/09/04 06:11:04;;;;;;;13.13;10.03;;;;;;;;;;5074652;28;20952;-76
2022/09/04 06:13:30;;;;;;;19.30;12.00;;;;;;;;;;5044262;28;20823;-75
2022/09/04 06:16:06;;;;;;;21.60;12.13;;;;;;;;;;5040185;28;20431;-74
2022/09/04 06:18:36;;;;;;;14.10;11.30;;;;;;;;;;5057024;28;20420;-74
2022/09/04 06:21:21;;;;;;;14.30;10.50;;;;;;;;;;5023174;28;20487;-74
2022/09/04 06:23:57;;;;;;;12.30;9.90;;;;;;;;;;5052968;28;20432;-75
2022/09/04 06:26:24;;;;;;;15.23;12.00;;;;;;;;;;5074333;28;20424;-74
2022/09/04 06:29:00;;;;;;;15.93;11.87;;;;;;;;;;5039803;28;20515;-74
2022/09/04 06:31:49;;;;;;;21.20;11.97;;;;;;;;;;5040343;28;20550;-76
2022/09/04 06:34:31;;;;;;;12.43;10.93;;;;;;;;;;5045491;28;20482;-76
2022/09/04 06:37:08;;;;;;;13.23;10.47;;;;;;;;;;5039600;28;20458;-74
2022/09/04 06:39:38;;;;;;;14.20;9.97;;;;;;;;;;5056319;28;20444;-75
2022/09/04 06:42:20;;;;;;;12.93;10.57;;;;;;;;;;5026726;28;20428;-75
2022/09/04 06:44:47;;;;;;;15.00;11.07;;;;;;;;;;5055915;28;20440;-76
2022/09/04 06:47:32;;;;;;;12.70;10.97;;;;;;;;;;5056031;28;20485;-76
2022/09/04 06:50:04;;;;;;;13.50;10.53;;;;;;;;;;5055648;28;20575;-76
2022/09/04 06:52:44;;;;;;;12.97;11.13;;;;;;;;;;5073856;28;20433;-75
2022/09/04 06:55:11;;;;;;;14.67;11.70;;;;;;;;;;5056036;28;20828;-75
2022/09/04 06:57:45;;;;;;;12.00;10.43;;;;;;;;;;5055811;28;20794;-75
2022/09/04 07:00:13;;;;;;;22.33;12.40;;;;;;;;;;5055817;28;20468;-75
2022/09/04 07:02:39;;;;;;;12.30;10.83;;;;;;;;;;5025917;28;20987;-75
2022/09/04 07:05:12;;;;;;;15.90;12.20;;;;;;;;;;5055888;28;20511;-75
2022/09/04 07:07:51;;;;;;;12.37;9.80;;;;;;;;;;5039108;28;20428;-75
2022/09/04 07:10:31;;;;;;;13.37;11.83;;;;;;;;;;5055706;28;20456;-76
2022/09/04 07:13:00;;;;;;;10.53;9.43;;;;;;;;;;5059354;28;20977;-76
2022/09/04 07:15:30;;;;;;;13.93;11.03;;;;;;;;;;5055985;28;20435;-76
2022/09/04 07:18:12;;;;;;;14.03;12.63;;;;;;;;;;5055650;28;20947;-76
2022/09/04 07:20:57;;;;;;;15.27;13.10;;;;;;;;;;5039009;28;20839;-75
2022/09/04 07:23:43;;;;;;;14.10;11.40;;;;;;;;;;5026187;28;20516;-75
2022/09/04 07:26:28;;;;;;;14.60;11.33;;;;;;;;;;5041528;28;20445;-75
2022/09/04 07:29:15;;;;;;;12.70;11.50;;;;;;;;;;5053783;28;20852;-75
2022/09/04 07:32:04;;;;;;;13.53;10.43;;;;;;;;;;5055459;28;20476;-75
2022/09/04 07:34:49;;;;;;;13.90;11.77;;;;;;;;;;5055643;28;20479;-74
2022/09/04 07:37:26;;;;;;;13.13;11.73;;;;;;;;;;5038979;28;20952;-74
2022/09/04 07:40:03;;;;;;;11.77;10.57;;;;;;;;;;5073147;28;20462;-75
2022/09/04 07:42:38;;;;;;;13.20;11.10;;;;;;;;;;5056036;28;20416;-75
2022/09/04 07:45:10;;;;;;;12.40;11.20;;;;;;;;;;5054884;28;20437;-74
2022/09/04 07:47:41;;;;;;;12.10;10.90;;;;;;;;;;5055112;28;20425;-75
2022/09/04 07:50:09;;;;;;;11.23;10.00;;;;;;;;;;5055039;28;20492;-76
2022/09/04 07:52:42;;;;;;;12.83;10.43;;;;;;;;;;5054959;28;20439;-76
2022/09/04 07:55:12;;;;;;;13.13;11.87;;;;;;;;;;5042215;28;20424;-76
2022/09/04 07:57:57;;;;;;;12.67;11.47;;;;;;;;;;5038426;28;20435;-76
2022/09/04 08:00:25;;;;;;;10.33;9.33;;;;;;;;;;5054775;28;20456;-75
2022/09/04 08:02:56;;;;;;;10.73;9.70;;;;;;;;;;5038230;28;20447;-76
2022/09/04 08:05:24;;;;;;;12.93;11.60;;;;;;;;;;5055095;28;20416;-76
2022/09/04 08:08:10;;;;;;;10.80;9.70;;;;;;;;;;5041322;28;20449;-75
2022/09/04 08:10:36;;;;;;;13.87;12.40;;;;;;;;;;5054837;28;20814;-75
2022/09/04 08:13:09;;;;;;;12.40;11.13;;;;;;;;;;5037999;28;20429;-75
2022/09/04 08:15:55;;;;;;;11.60;10.47;;;;;;;;;;5054492;28;20448;-75
2022/09/04 08:18:21;;;;;;;10.07;8.97;;;;;;;;;;5038313;28;20440;-76
2022/09/04 08:21:08;;;;;;;10.97;9.87;;;;;;;;;;5037811;28;20492;-75
2022/09/04 08:23:41;;;;;;;11.37;10.27;;;;;;;;;;5054403;28;20436;-75
2022/09/04 08:26:13;;;;;;;11.60;10.57;;;;;;;;;;5038405;28;20986;-76
2022/09/04 08:28:58;;;;;;;11.87;10.70;;;;;;;;;;5072419;28;20815;-75
2022/09/04 08:31:28;;;;;;;11.90;10.80;;;;;;;;;;5054341;28;20495;-75
2022/09/04 08:34:34;;;;;;;11.23;10.17;;;;;;;;;;5072185;28;20456;-76
2022/09/04 08:37:14;;;;;;;11.40;10.30;;;;;;;;;;4987266;28;20995;-75
2022/09/04 08:40:00;;;;;;;13.50;11.53;;;;;;;;;;4958993;28;20504;-76
2022/09/04 08:42:46;;;;;;;12.30;10.43;;;;;;;;;;5026131;28;20429;-76
2022/09/04 08:45:24;;;;;;;11.40;10.30;;;;;;;;;;5071758;28;20420;-76
2022/09/04 08:48:10;;;;;;;10.67;9.67;;;;;;;;;;5037754;28;20520;-74
2022/09/04 08:50:56;;;;;;;11.77;10.67;;;;;;;;;;5037978;28;20890;-74
2022/09/04 08:53:39;;;;;;;13.53;12.20;;;;;;;;;;5054094;28;20436;-75
2022/09/04 08:56:07;;;;;;;11.57;10.40;;;;;;;;;;5054342;28;20417;-75
2022/09/04 08:58:33;;;;;;;13.80;12.37;;;;;;;;;;5053643;28;20536;-75
2022/09/04 09:01:19;;;;;;;12.40;11.20;;;;;;;;;;5053315;28;20597;-76
2022/09/04 09:04:01;;;;;;;14.00;12.70;;;;;;;;;;5053722;28;20464;-75
2022/09/04 09:06:47;;;;;;;14.23;10.17;;;;;;;;;;5053545;28;20799;-74
2022/09/04 09:09:41;;;;;;;11.63;10.53;;;;;;;;;;5053247;28;20478;-76
2022/09/04 09:12:10;;;;;;;11.80;10.70;;;;;;;;;;5033733;28;20512;-76
2022/09/04 09:14:55;;;;;;;14.33;12.37;;;;;;;;;;5058461;28;20424;-76
2022/09/04 09:17:38;;;;;;;12.80;11.60;;;;;;;;;;5039783;28;20441;-76
2022/09/04 09:20:24;;;;;;;11.63;10.47;;;;;;;;;;5036978;28;20975;-76
2022/09/04 09:23:10;;;;;;;10.90;9.93;;;;;;;;;;5021369;28;20487;-75
2022/09/04 09:25:50;;;;;;;13.47;12.07;;;;;;;;;;5051229;28;20528;-76
2022/09/04 09:28:17;;;;;;;12.70;11.50;;;;;;;;;;5053537;28;20416;-74
2022/09/04 09:30:57;;;;;;;15.03;13.53;;;;;;;;;;5071164;28;20452;-75
2022/09/04 09:33:50;;;;;;;13.17;11.87;;;;;;;;;;5039936;28;20429;-74
2022/09/04 09:36:33;;;;;;;12.90;11.63;;;;;;;;;;5034809;28;20479;-76
2022/09/04 09:39:16;;;;;;;13.30;10.83;;;;;;;;;;5041441;28;20432;-76
2022/09/04 09:41:50;;;;;;;12.90;11.60;;;;;;;;;;5040871;28;20503;-74
2022/09/04 09:44:41;;;;;;;13.57;12.37;;;;;;;;;;5040760;28;20468;-76
2022/09/04 09:47:26;;;;;;;13.97;12.77;;;;;;;;;;5063007;28;20415;-76
2022/09/04 09:49:53;;;;;;;12.10;11.00;;;;;;;;;;5057247;28;20460;-75
2022/09/04 09:52:38;;;;;;;13.63;12.37;;;;;;;;;;5057166;28;20428;-76
2022/09/04 09:55:16;;;;;;;13.43;12.23;;;;;;;;;;5057041;28;20468;-75
2022/09/04 09:58:02;;;;;;;13.50;12.13;;;;;;;;;;5075225;28;20427;-75
2022/09/04 10:00:35;;;;;;;12.70;11.60;;;;;;;;;;5040683;28;20521;-76
2022/09/04 10:03:05;;;;;;;13.57;12.27;;;;;;;;;;5057300;28;20454;-76
2022/09/04 10:05:36;;;;;;;13.70;12.30;;;;;;;;;;5056849;28;20982;-76
2022/09/04 10:08:26;;;;;;;12.30;11.10;;;;;;;;;;5057204;28;20423;-75
2022/09/04 10:11:22;;;;;;;12.07;10.97;;;;;;;;;;5027968;28;20468;-76
2022/09/04 10:14:11;;;;;;;12.37;11.17;;;;;;;;;;5057010;28;20530;-75
2022/09/04 10:16:41;;;;;;;9.93;8.93;;;;;;;;;;5040480;28;20428;-75
2022/09/04 10:19:32;;;;;;;11.60;10.60;;;;;;;;;;5074595;28;20515;-74
2022/09/04 10:22:10;;;;;;;11.67;10.37;;;;;;;;;;5057446;28;20547;-75
2022/09/04 10:24:37;;;;;;;10.87;9.83;;;;;;;;;;5075000;28;20401;-76
2022/09/04 10:27:03;;;;;;;11.50;10.40;;;;;;;;;;5056905;28;20539;-75
2022/09/04 10:29:35;;;;;;;11.20;10.20;;;;;;;;;;5074575;28;20482;-74
2022/09/04 10:32:05;;;;;;;11.10;10.00;;;;;;;;;;5040445;28;20710;-75
2022/09/04 10:34:35;;;;;;;13.63;12.37;;;;;;;;;;5040277;28;20963;-76
2022/09/04 10:37:14;;;;;;;11.07;9.87;;;;;;;;;;5057309;28;20429;-75
2022/09/04 10:42:50;;;;;;;10.80;9.80;;;;;;;;;;5036951;28;20976;-75
2022/09/04 10:45:39;;;;;;;10.20;9.40;;;;;;;;;;5055461;28;20428;-75
2022/09/04 10:48:18;;;;;;;10.20;9.40;;;;;;;;;;5038781;28;20429;-74
2022/09/04 10:50:45;;;;;;;10.63;9.63;;;;;;;;;;5055763;28;20547;-74
2022/09/04 10:53:30;;;;;;;10.13;9.23;;;;;;;;;;5055898;28;20506;-74
2022/09/04 10:56:15;;;;;;;10.87;9.40;;;;;;;;;;5073842;28;20448;-74
2022/09/04 10:58:45;;;;;;;9.50;8.60;;;;;;;;;;5046278;28;20438;-74
2022/09/04 11:01:39;;;;;;;10.43;9.43;;;;;;;;;;5019294;28;21046;-74
2022/09/04 11:04:26;;;;;;;7.60;7.00;;;;;;;;;;5064746;28;20468;-76
2022/09/04 11:07:11;;;;;;;8.80;7.90;;;;;;;;;;5073700;28;20425;-76
2022/09/04 11:09:56;;;;;;;8.87;7.97;;;;;;;;;;5055544;28;20517;-75
2022/09/04 11:12:32;;;;;;;9.50;8.40;;;;;;;;;;5055566;28;20846;-74
2022/09/04 11:15:04;;;;;;;8.30;7.70;;;;;;;;;;5073557;28;20427;-76
2022/09/04 11:17:50;;;;;;;8.60;7.90;;;;;;;;;;5038946;28;21017;-76
2022/09/04 11:20:45;;;;;;;8.70;8.00;;;;;;;;;;5055306;28;20476;-76
2022/09/04 11:23:30;;;;;;;7.57;6.97;;;;;;;;;;5035539;28;20508;-76
2022/09/04 11:26:15;;;;;;;7.93;7.17;;;;;;;;;;5042524;28;20428;-76
2022/09/04 11:28:46;;;;;;;9.73;7.27;;;;;;;;;;5073209;28;20432;-75
2022/09/04 11:31:12;;;;;;;7.33;6.73;;;;;;;;;;5055105;28;20529;-75
2022/09/04 11:33:46;;;;;;;7.53;6.83;;;;;;;;;;5054979;28;20444;-76
2022/09/04 11:36:28;;;;;;;6.37;5.77;;;;;;;;;;5054988;28;20528;-76
2022/09/04 11:39:00;;;;;;;6.67;6.17;;;;;;;;;;5072406;28;20460;-76
2022/09/04 11:41:47;;;;;;;6.20;5.60;;;;;;;;;;5054946;28;20464;-75
2022/09/04 11:44:17;;;;;;;6.50;6.00;;;;;;;;;;5055789;28;20432;-76
2022/09/04 11:46:46;;;;;;;7.97;5.50;;;;;;;;;;5059726;28;20475;-76
2022/09/04 11:49:16;;;;;;;6.23;5.00;;;;;;;;;;5054990;28;20866;-76
2022/09/04 11:51:49;;;;;;;5.80;4.77;;;;;;;;;;5055056;28;20436;-75
2022/09/04 11:54:24;;;;;;;5.17;4.77;;;;;;;;;;5038502;28;20428;-75
2022/09/04 11:56:51;;;;;;;5.73;5.23;;;;;;;;;;5042590;28;20464;-75
2022/09/04 11:59:46;;;;;;;4.33;4.03;;;;;;;;;;5071836;28;20460;-77
2022/09/04 12:02:27;;;;;;;4.47;4.07;;;;;;;;;;5055669;28;20508;-78
2022/09/04 12:05:14;;;;;;;3.97;3.67;;;;;;;;;;5042383;28;20424;-77
2022/09/04 12:07:44;;;;;;;4.33;4.03;;;;;;;;;;5054986;28;20435;-76
2022/09/04 12:10:16;;;;;;;3.60;3.30;;;;;;;;;;5072503;28;20944;-75
2022/09/04 12:13:03;;;;;;;3.87;3.57;;;;;;;;;;5037947;28;20440;-75
2022/09/04 12:15:43;;;;;;;5.40;4.90;;;;;;;;;;5038135;28;20433;-76
2022/09/04 12:18:22;;;;;;;4.10;3.80;;;;;;;;;;5054371;28;20436;-76
2022/09/04 12:21:11;;;;;;;3.40;3.20;;;;;;;;;;5109257;27;20659;-74
2022/09/04 12:23:56;;;;;;;4.43;3.23;;;;;;;;;;5091181;28;20431;-74
2022/09/04 12:26:29;;;;;;;3.73;3.43;;;;;;;;;;5109537;28;20414;-75
2022/09/04 12:28:55;;;;;;;3.00;2.80;;;;;;;;;;5104115;28;20485;-76
2022/09/04 12:31:41;;;;;;;3.17;2.30;;;;;;;;;;5083043;28;20482;-75
2022/09/04 12:34:26;;;;;;;3.47;3.17;;;;;;;;;;5108907;28;20480;-76
2022/09/04 12:37:11;;;;;;;2.60;2.40;;;;;;;;;;5092088;28;20442;-75
2022/09/04 12:39:50;;;;;;;2.90;2.70;;;;;;;;;;5096905;28;20580;-76
2022/09/04 12:42:23;;;;;;;3.60;3.40;;;;;;;;;;5095425;28;20438;-76
2022/09/04 12:44:58;;;;;;;3.30;3.07;;;;;;;;;;5093476;28;20420;-76
2022/09/04 12:47:29;;;;;;;3.33;3.13;;;;;;;;;;5097999;28;20898;-77
2022/09/04 12:50:13;;;;;;;2.70;2.50;;;;;;;;;;5077521;28;20834;-77
2022/09/04 12:52:55;;;;;;;5.77;2.60;;;;;;;;;;5074242;28;20494;-76
2022/09/04 12:55:22;;;;;;;3.07;2.87;;;;;;;;;;5099252;28;20415;-76
2022/09/04 12:58:03;;;;;;;3.90;2.47;;;;;;;;;;5073121;28;20439;-75
2022/09/04 13:00:39;;;;;;;3.93;3.63;;;;;;;;;;5097720;28;20455;-74
2022/09/04 13:03:40;;;;;;;2.83;2.63;;;;;;;;;;5089835;28;20518;-76
2022/09/04 13:06:17;;;;;;;2.23;2.13;;;;;;;;;;5101964;28;20762;-74
2022/09/04 13:08:59;;;;;;;2.47;2.27;;;;;;;;;;5099046;28;20423;-75
2022/09/04 13:11:41;;;;;;;2.07;1.90;;;;;;;;;;5081327;28;20447;-75
2022/09/04 13:14:27;;;;;;;3.63;2.10;;;;;;;;;;5107941;28;20926;-75
2022/09/04 13:16:56;;;;;;;2.53;2.40;;;;;;;;;;5090654;28;20476;-76
2022/09/04 13:19:23;;;;;;;2.40;2.20;;;;;;;;;;5107441;28;20470;-75
2022/09/04 13:21:56;;;;;;;3.03;2.47;;;;;;;;;;5107619;28;20423;-75
2022/09/04 13:24:25;;;;;;;2.80;2.60;;;;;;;;;;5090828;28;21148;-77
2022/09/04 13:26:53;;;;;;;2.43;2.33;;;;;;;;;;5094721;28;20428;-78
2022/09/04 13:29:20;;;;;;;2.87;2.20;;;;;;;;;;5079493;28;20428;-76
2022/09/04 13:31:46;;;;;;;2.60;2.40;;;;;;;;;;5078177;28;20436;-75
2022/09/04 13:34:29;;;;;;;3.33;3.03;;;;;;;;;;5085496;28;20807;-76
2022/09/04 13:37:10;;;;;;;2.50;2.40;;;;;;;;;;5079308;28;20446;-76
2022/09/04 13:39:37;;;;;;;3.30;3.10;;;;;;;;;;5094167;28;20509;-76
2022/09/04 13:42:09;;;;;;;2.40;2.30;;;;;;;;;;5082006;28;20881;-76
2022/09/04 13:44:42;;;;;;;2.50;2.40;;;;;;;;;;5077131;28;20489;-76
2022/09/04 13:47:09;;;;;;;1.83;1.73;;;;;;;;;;5073497;28;20468;-75
2022/09/04 13:49:39;;;;;;;1.93;1.83;;;;;;;;;;5055434;28;20450;-76
2022/09/04 13:52:11;;;;;;;1.87;1.77;;;;;;;;;;5081630;28;20433;-77
2022/09/04 13:54:41;;;;;;;2.00;1.90;;;;;;;;;;5083172;28;20431;-77
2022/09/04 13:57:26;;;;;;;2.03;1.93;;;;;;;;;;5063235;28;20430;-76
2022/09/04 13:59:58;;;;;;;2.60;2.40;;;;;;;;;;5083672;28;20477;-76
2022/09/04 14:02:25;;;;;;;2.00;1.90;;;;;;;;;;5067202;28;20457;-77
2022/09/04 14:05:07;;;;;;;2.13;2.03;;;;;;;;;;5073729;28;20460;-77
2022/09/04 14:07:41;;;;;;;2.03;1.93;;;;;;;;;;5080244;28;20437;-76
2022/09/04 14:10:16;;;;;;;2.53;2.00;;;;;;;;;;5083533;28;20457;-76
2022/09/04 14:12:52;;;;;;;2.30;2.20;;;;;;;;;;5082085;28;20419;-77
2022/09/04 14:15:39;;;;;;;2.07;1.97;;;;;;;;;;5096337;28;20477;-76
2022/09/04 14:18:12;;;;;;;2.20;2.10;;;;;;;;;;5054195;28;20471;-76
2022/09/04 14:20:56;;;;;;;2.77;1.90;;;;;;;;;;5088981;28;20484;-76
2022/09/04 14:23:46;;;;;;;2.37;2.13;;;;;;;;;;5075577;28;20428;-76
2022/09/04 14:26:15;;;;;;;2.47;2.30;;;;;;;;;;5069377;28;20425;-76
2022/09/04 14:29:02;;;;;;;2.50;2.30;;;;;;;;;;5071710;28;20485;-76
2022/09/04 14:31:44;;;;;;;2.17;2.07;;;;;;;;;;5079289;28;20456;-76
2022/09/04 14:34:12;;;;;;;2.40;2.20;;;;;;;;;;5068944;28;20931;-76
2022/09/04 14:36:59;;;;;;;2.73;2.53;;;;;;;;;;5090689;28;20432;-76
2022/09/04 14:39:26;;;;;;;2.60;2.50;;;;;;;;;;5060809;28;20967;-77
2022/09/04 14:42:00;;;;;;;2.47;2.30;;;;;;;;;;5079534;28;20475;-77
2022/09/04 14:44:26;;;;;;;2.17;2.07;;;;;;;;;;5077400;28;20435;-76
2022/09/04 14:47:08;;;;;;;3.40;2.17;;;;;;;;;;5078209;28;20880;-75
2022/09/04 14:49:44;;;;;;;1.93;1.70;;;;;;;;;;5077972;28;20461;-75
2022/09/04 14:52:22;;;;;;;2.10;2.00;;;;;;;;;;5082197;28;20912;-75
2022/09/04 14:54:53;;;;;;;1.90;1.80;;;;;;;;;;5074004;28;20998;-75
2022/09/04 14:57:35;;;;;;;2.73;2.53;;;;;;;;;;5089235;28;20467;-77
2022/09/04 15:00:01;;;;;;;3.53;2.97;;;;;;;;;;5056026;28;20519;-77
2022/09/04 15:02:34;;;;;;;3.03;1.90;;;;;;;;;;5081380;28;20783;-77
2022/09/04 15:05:02;;;;;;;1.93;1.83;;;;;;;;;;5079957;28;20424;-76
2022/09/04 15:07:40;;;;;;;1.67;1.57;;;;;;;;;;5061787;28;20458;-76
2022/09/04 15:10:13;;;;;;;2.00;1.90;;;;;;;;;;5061437;28;20449;-74
2022/09/04 15:12:43;;;;;;;2.50;2.13;;;;;;;;;;5084006;28;20459;-77
2022/09/04 15:15:30;;;;;;;2.50;2.40;;;;;;;;;;5085419;28;20462;-77
2022/09/04 15:18:02;;;;;;;1.80;1.70;;;;;;;;;;5076760;28;20436;-77
2022/09/04 15:20:36;;;;;;;2.17;2.00;;;;;;;;;;5087086;28;21964;-76
2022/09/04 15:23:14;;;;;;;4.00;2.40;;;;;;;;;;5090982;28;20462;-76
2022/09/04 15:25:56;;;;;;;2.67;2.13;;;;;;;;;;5077628;28;20542;-76
2022/09/04 15:28:37;;;;;;;6.03;2.20;;;;;;;;;;5080152;28;20416;-77
2022/09/04 15:31:12;;;;;;;2.10;2.00;;;;;;;;;;5063861;28;21035;-78